Time;durP1;ratioP1;P1;durP2;ratioP2;P2;SDS_P1;SDS_P2;PMS_P1;PMS_P2;Temp;Humidity;BMP_temperature;BMP_pressure;BME280_temperature;BME280_humidity;BME280_pressure;Samples;Min_cycle;Max_cycle;Signal;HPM_P1;HPM_P2
2021/07/05 00:00:15;;;;;;;0.40;0.40;;;17.80;91.00;;;;;;4873872;29;20032;-86
2021/07/05 00:02:42;;;;;;;0.52;0.35;;;17.80;91.10;;;;;;4877799;29;20084;-87
2021/07/05 00:05:08;;;;;;;1.20;0.75;;;17.80;91.20;;;;;;4884209;29;20075;-89
2021/07/05 00:07:34;;;;;;;3.35;0.60;;;17.80;91.20;;;;;;4883615;29;20028;-89
2021/07/05 00:10:00;;;;;;;1.90;0.60;;;17.80;91.20;;;;;;4875815;29;20537;-89
2021/07/05 00:12:26;;;;;;;2.08;0.52;;;17.80;91.20;;;;;;4891502;29;20395;-89
2021/07/05 00:14:51;;;;;;;0.98;0.60;;;17.80;91.00;;;;;;4869144;29;20029;-88
2021/07/05 00:17:17;;;;;;;0.68;0.40;;;17.80;91.10;;;;;;4879380;29;20504;-88
2021/07/05 00:19:43;;;;;;;2.45;0.63;;;17.80;91.10;;;;;;4886635;29;20047;-88
2021/07/05 00:22:09;;;;;;;1.40;0.52;;;17.80;91.20;;;;;;4890551;29;20088;-86
2021/07/05 00:24:34;;;;;;;2.22;0.50;;;17.70;91.30;;;;;;4893075;29;20032;-89
2021/07/05 00:27:00;;;;;;;2.15;0.60;;;17.70;91.40;;;;;;4867890;29;20033;-88
2021/07/05 00:29:26;;;;;;;1.17;0.40;;;17.70;91.40;;;;;;4883856;29;20079;-88
2021/07/05 00:31:52;;;;;;;0.38;0.35;;;17.70;91.50;;;;;;4899376;29;20123;-88
2021/07/05 00:34:18;;;;;;;1.45;0.60;;;17.80;91.40;;;;;;4872358;29;20061;-88
2021/07/05 00:36:43;;;;;;;1.40;0.68;;;17.80;91.40;;;;;;4877506;29;20032;-87
2021/07/05 00:39:09;;;;;;;2.58;0.40;;;17.80;91.30;;;;;;4883022;29;20031;-88
2021/07/05 00:41:35;;;;;;;2.22;0.43;;;17.80;91.40;;;;;;4878462;29;20123;-86
2021/07/05 00:44:00;;;;;;;2.95;0.50;;;17.80;91.50;;;;;;4871410;29;20028;-88
2021/07/05 00:46:27;;;;;;;2.47;0.60;;;17.80;91.50;;;;;;4888140;29;20028;-89
2021/07/05 00:48:53;;;;;;;2.85;0.50;;;17.80;91.40;;;;;;4882677;29;20025;-89
2021/07/05 00:51:19;;;;;;;0.63;0.43;;;17.80;91.40;;;;;;4879278;29;20139;-89
2021/07/05 00:53:47;;;;;;;2.50;0.40;;;17.80;91.50;;;;;;4894877;29;20083;-84
2021/07/05 00:56:13;;;;;;;1.50;0.50;;;17.80;91.50;;;;;;4903759;29;20028;-85
2021/07/05 00:58:39;;;;;;;0.63;0.40;;;17.80;91.60;;;;;;4901124;29;20040;-91
2021/07/05 01:01:05;;;;;;;2.63;0.57;;;17.80;91.70;;;;;;4897206;29;20538;-87
2021/07/05 01:03:31;;;;;;;0.40;0.32;;;17.80;91.70;;;;;;4877892;29;20600;-90
2021/07/05 01:05:56;;;;;;;1.48;0.50;;;17.70;91.80;;;;;;4870639;29;20122;-89
2021/07/05 01:08:22;;;;;;;0.85;0.50;;;17.80;91.70;;;;;;4882006;29;20521;-88
2021/07/05 01:10:48;;;;;;;1.80;0.60;;;17.80;91.70;;;;;;4885075;29;20029;-89
2021/07/05 01:13:13;;;;;;;0.90;0.55;;;17.80;91.70;;;;;;4881310;29;20386;-89
2021/07/05 01:15:39;;;;;;;6.22;0.65;;;17.80;91.60;;;;;;4908613;29;20025;-88
2021/07/05 01:18:06;;;;;;;3.92;0.82;;;17.90;91.50;;;;;;4888169;29;20112;-88
2021/07/05 01:20:35;;;;;;;1.55;0.50;;;17.90;91.50;;;;;;4901654;29;20471;-89
2021/07/05 01:23:00;;;;;;;1.77;0.50;;;17.90;91.50;;;;;;4899466;29;20156;-89
2021/07/05 01:25:28;;;;;;;1.60;0.60;;;17.90;91.50;;;;;;4887696;29;20080;-89
2021/07/05 01:27:54;;;;;;;0.88;0.63;;;17.90;91.60;;;;;;4886689;29;20034;-90
2021/07/05 01:30:22;;;;;;;0.57;0.50;;;17.90;91.50;;;;;;4875121;29;20033;-90
2021/07/05 01:32:50;;;;;;;1.75;0.43;;;17.90;91.70;;;;;;4903042;29;20037;-91
2021/07/05 01:35:16;;;;;;;1.38;0.80;;;17.80;91.70;;;;;;4911724;29;20091;-85
2021/07/05 01:37:43;;;;;;;1.23;0.55;;;17.80;91.70;;;;;;4907964;29;20081;-87
2021/07/05 01:40:18;;;;;;;1.67;0.60;;;17.80;91.80;;;;;;4904810;29;20024;-88
2021/07/05 01:42:50;;;;;;;3.13;0.70;;;17.80;91.80;;;;;;4888870;29;20029;-88
2021/07/05 01:45:19;;;;;;;3.95;0.70;;;17.80;91.90;;;;;;4897550;29;20043;-88
2021/07/05 01:47:45;;;;;;;1.10;0.70;;;17.80;92.00;;;;;;4892702;29;20025;-86
2021/07/05 01:50:11;;;;;;;0.95;0.65;;;17.70;92.00;;;;;;4902999;29;20427;-86
2021/07/05 01:52:37;;;;;;;1.40;0.60;;;17.70;92.10;;;;;;4886072;29;20053;-86
2021/07/05 01:55:03;;;;;;;1.80;0.70;;;17.70;92.20;;;;;;4860096;29;20531;-87
2021/07/05 01:57:33;;;;;;;1.75;0.73;;;17.70;92.30;;;;;;4848222;29;20025;-85
2021/07/05 02:00:00;;;;;;;1.00;0.60;;;17.60;92.30;;;;;;4872050;29;20021;-86
2021/07/05 02:02:27;;;;;;;2.33;0.50;;;17.60;92.40;;;;;;4854989;29;20033;-86
2021/07/05 02:04:53;;;;;;;1.35;0.60;;;17.60;92.40;;;;;;4880287;29;20053;-87
2021/07/05 02:07:19;;;;;;;2.28;0.45;;;17.70;92.40;;;;;;4864490;29;20030;-87
2021/07/05 02:09:46;;;;;;;2.58;0.80;;;17.70;92.30;;;;;;4863566;29;20032;-87
2021/07/05 02:12:13;;;;;;;2.03;0.77;;;17.70;92.30;;;;;;4853666;29;20033;-86
2021/07/05 02:14:40;;;;;;;0.70;0.60;;;17.70;92.40;;;;;;4874408;29;20053;-88
2021/07/05 02:17:08;;;;;;;1.92;0.70;;;17.80;92.40;;;;;;4881021;29;20037;-88
2021/07/05 02:19:34;;;;;;;1.17;0.50;;;17.70;92.40;;;;;;4883567;29;20383;-88
2021/07/05 02:22:05;;;;;;;0.70;0.57;;;17.80;92.40;;;;;;4883586;29;20041;-87
2021/07/05 02:24:34;;;;;;;1.05;0.70;;;17.80;92.30;;;;;;4866533;29;20033;-86
2021/07/05 02:27:00;;;;;;;1.98;0.73;;;17.80;92.30;;;;;;4882523;29;20435;-86
2021/07/05 02:29:26;;;;;;;1.15;0.60;;;17.80;92.20;;;;;;4881996;29;20025;-86
2021/07/05 02:31:55;;;;;;;1.40;0.77;;;17.90;92.20;;;;;;4882432;29;20155;-86
2021/07/05 02:34:21;;;;;;;2.25;0.70;;;17.90;92.20;;;;;;4866209;29;20096;-87
2021/07/05 02:36:46;;;;;;;1.88;0.75;;;17.90;92.20;;;;;;4882123;29;20474;-86
2021/07/05 02:39:12;;;;;;;0.80;0.60;;;17.90;92.10;;;;;;4866246;29;20025;-87
2021/07/05 02:41:38;;;;;;;2.00;0.55;;;17.90;92.10;;;;;;4882270;29;20088;-86
2021/07/05 02:44:04;;;;;;;2.03;0.75;;;17.90;92.10;;;;;;4883026;29;20029;-86
2021/07/05 02:46:30;;;;;;;4.65;0.95;;;17.90;92.10;;;;;;4881591;29;20044;-86
2021/07/05 02:48:55;;;;;;;1.20;0.60;;;17.90;92.10;;;;;;4866553;29;20037;-87
2021/07/05 02:51:21;;;;;;;1.33;0.80;;;18.00;92.10;;;;;;4886007;29;20055;-86
2021/07/05 02:53:47;;;;;;;2.25;0.73;;;18.00;92.10;;;;;;4900760;29;20041;-86
2021/07/05 02:56:13;;;;;;;0.70;0.60;;;18.00;92.10;;;;;;4901266;29;20072;-87
2021/07/05 02:58:39;;;;;;;1.15;0.70;;;18.00;92.10;;;;;;4901675;29;20077;-85
2021/07/05 03:01:07;;;;;;;3.25;0.52;;;18.00;92.10;;;;;;4901352;29;20383;-85
2021/07/05 03:03:34;;;;;;;1.38;0.65;;;18.00;92.10;;;;;;4900315;29;20039;-85
2021/07/05 03:05:59;;;;;;;0.80;0.65;;;18.10;92.10;;;;;;4901502;29;20032;-85
2021/07/05 03:08:25;;;;;;;1.33;0.60;;;18.10;92.10;;;;;;4899744;29;20056;-85
2021/07/05 03:10:51;;;;;;;1.05;0.70;;;18.10;92.10;;;;;;4900455;29;20032;-85
2021/07/05 03:13:18;;;;;;;2.63;0.70;;;18.10;92.20;;;;;;4899740;29;20040;-85
2021/07/05 03:15:45;;;;;;;1.85;0.80;;;18.10;92.10;;;;;;4901267;29;20039;-85
2021/07/05 03:18:11;;;;;;;1.23;0.73;;;18.10;92.10;;;;;;4900025;29;20124;-89
2021/07/05 03:20:46;;;;;;;0.77;0.60;;;18.10;92.30;;;;;;4900173;29;20085;-86
2021/07/05 03:23:15;;;;;;;2.65;0.70;;;18.20;92.10;;;;;;4899452;29;20036;-86
2021/07/05 03:25:41;;;;;;;3.00;0.77;;;18.20;92.00;;;;;;4900192;29;20036;-86
2021/07/05 03:28:09;;;;;;;3.45;0.80;;;18.10;92.10;;;;;;4900428;29;20021;-86
2021/07/05 03:30:36;;;;;;;1.17;0.60;;;18.10;92.10;;;;;;4900664;29;20028;-85
2021/07/05 03:33:02;;;;;;;5.22;0.77;;;18.10;92.10;;;;;;4900048;29;20048;-86
2021/07/05 03:35:28;;;;;;;4.72;1.25;;;18.10;92.10;;;;;;4899551;29;20036;-86
2021/07/05 03:37:55;;;;;;;1.77;0.82;;;18.10;92.10;;;;;;4899914;29;20470;-86
2021/07/05 03:40:27;;;;;;;1.33;0.80;;;18.10;92.20;;;;;;4899217;29;20035;-86
2021/07/05 03:42:54;;;;;;;0.90;0.80;;;18.10;92.10;;;;;;4899738;29;20036;-86
2021/07/05 03:45:25;;;;;;;0.82;0.57;;;18.10;92.10;;;;;;4899225;29;20481;-87
2021/07/05 03:47:52;;;;;;;3.22;0.80;;;18.10;92.50;;;;;;4900757;29;20060;-87
2021/07/05 03:50:19;;;;;;;2.35;0.77;;;18.20;92.10;;;;;;4898897;29;20052;-87
2021/07/05 03:52:45;;;;;;;3.00;0.70;;;18.10;92.10;;;;;;4899179;29;20495;-88
2021/07/05 03:55:14;;;;;;;5.53;1.27;;;18.10;92.20;;;;;;4899762;29;20033;-88
2021/07/05 03:57:40;;;;;;;3.35;0.80;;;18.10;92.10;;;;;;4899300;29;20061;-89
2021/07/05 04:00:09;;;;;;;3.83;0.90;;;18.20;92.20;;;;;;4899038;29;20032;-88
2021/07/05 04:02:35;;;;;;;2.38;1.05;;;18.10;92.10;;;;;;4899165;29;20028;-88
2021/07/05 04:05:01;;;;;;;2.13;0.85;;;18.20;92.10;;;;;;4899409;29;20055;-89
2021/07/05 04:07:26;;;;;;;1.85;0.80;;;18.20;92.10;;;;;;4898656;29;20099;-88
2021/07/05 04:09:52;;;;;;;1.63;0.68;;;18.20;92.10;;;;;;4899084;29;20036;-88
2021/07/05 04:12:21;;;;;;;5.43;0.88;;;18.30;92.20;;;;;;4899782;29;20057;-89
2021/07/05 04:14:48;;;;;;;2.80;1.42;;;18.30;92.20;;;;;;4899210;29;20033;-87
2021/07/05 04:17:14;;;;;;;3.03;1.00;;;18.20;92.30;;;;;;4898835;29;20035;-91
2021/07/05 04:19:39;;;;;;;3.92;2.35;;;18.20;92.40;;;;;;4898828;29;20383;-87
2021/07/05 04:22:05;;;;;;;1.80;0.70;;;18.20;92.30;;;;;;4899216;29;20044;-88
2021/07/05 04:24:31;;;;;;;1.15;0.90;;;18.30;92.40;;;;;;4898266;29;20024;-88
2021/07/05 04:26:57;;;;;;;1.33;0.80;;;18.20;92.30;;;;;;4899715;29;20034;-88
2021/07/05 04:29:22;;;;;;;5.20;1.13;;;18.30;92.40;;;;;;4899456;29;20032;-88
2021/07/05 04:31:55;;;;;;;3.50;0.75;;;18.30;92.70;;;;;;4898701;29;20028;-87
2021/07/05 04:34:22;;;;;;;2.65;0.90;;;18.20;92.70;;;;;;4898638;29;20113;-88
2021/07/05 04:36:48;;;;;;;0.70;0.70;;;18.20;92.40;;;;;;4899842;29;20025;-87
2021/07/05 04:39:15;;;;;;;2.00;0.70;;;18.20;92.50;;;;;;4897786;29;20025;-87
2021/07/05 04:41:41;;;;;;;2.25;0.90;;;18.30;92.40;;;;;;4898586;29;20028;-87
2021/07/05 04:44:11;;;;;;;3.35;0.95;;;18.30;92.50;;;;;;4898684;29;20385;-87
2021/07/05 04:46:38;;;;;;;1.92;0.73;;;18.30;92.50;;;;;;4897910;29;20032;-85
2021/07/05 04:49:06;;;;;;;4.78;1.00;;;18.20;92.60;;;;;;4898531;29;20115;-86
2021/07/05 04:51:32;;;;;;;1.58;0.93;;;18.20;92.60;;;;;;4898875;29;20056;-86
2021/07/05 04:53:57;;;;;;;2.45;0.85;;;18.30;92.60;;;;;;4898518;29;20500;-87
2021/07/05 04:56:23;;;;;;;4.10;1.17;;;18.30;92.60;;;;;;4899058;29;20184;-87
2021/07/05 04:58:49;;;;;;;0.90;0.80;;;18.20;92.60;;;;;;4899273;29;20028;-87
2021/07/05 05:01:14;;;;;;;3.05;1.10;;;18.30;92.70;;;;;;4882567;29;20032;-87
2021/07/05 05:03:40;;;;;;;6.03;1.05;;;18.30;92.70;;;;;;4882266;29;20039;-88
2021/07/05 05:06:06;;;;;;;3.47;0.90;;;18.30;92.70;;;;;;4882721;29;20032;-88
2021/07/05 05:08:32;;;;;;;2.25;0.98;;;18.30;92.80;;;;;;4898775;29;20028;-88
2021/07/05 05:11:00;;;;;;;3.45;0.95;;;18.20;92.80;;;;;;4882546;29;20451;-89
2021/07/05 05:13:28;;;;;;;5.40;1.63;;;18.20;92.80;;;;;;4881990;29;20083;-89
2021/07/05 05:15:54;;;;;;;2.90;0.82;;;18.20;92.80;;;;;;4882921;29;20037;-89
2021/07/05 05:18:20;;;;;;;4.15;1.10;;;18.30;92.90;;;;;;4913593;29;20136;-89
2021/07/05 05:20:46;;;;;;;2.58;1.20;;;18.30;93.00;;;;;;4898467;29;20036;-88
2021/07/05 05:23:12;;;;;;;2.22;0.80;;;18.20;92.90;;;;;;4882460;29;20076;-88
2021/07/05 05:25:38;;;;;;;9.07;1.08;;;18.20;93.00;;;;;;4881896;29;20101;-88
2021/07/05 05:28:04;;;;;;;1.58;0.80;;;18.30;93.00;;;;;;4882486;29;20171;-87
2021/07/05 05:30:29;;;;;;;1.73;0.82;;;18.20;92.90;;;;;;4882160;29;20568;-88
2021/07/05 05:32:56;;;;;;;4.22;1.00;;;18.20;93.00;;;;;;4882179;29;20386;-87
2021/07/05 05:35:23;;;;;;;1.45;0.82;;;18.30;93.10;;;;;;4882312;29;20041;-88
2021/07/05 05:37:52;;;;;;;1.42;1.05;;;18.20;93.10;;;;;;4882723;29;20029;-88
2021/07/05 05:40:18;;;;;;;2.53;1.00;;;18.20;93.10;;;;;;4882498;29;20030;-88
2021/07/05 05:42:44;;;;;;;4.57;1.13;;;18.20;93.20;;;;;;4898878;29;20028;-87
2021/07/05 05:45:10;;;;;;;3.45;1.27;;;18.20;93.20;;;;;;4882413;29;20053;-89
2021/07/05 05:47:36;;;;;;;2.90;0.85;;;18.20;93.20;;;;;;4881776;29;20445;-89
2021/07/05 05:50:05;;;;;;;3.75;1.08;;;18.20;93.20;;;;;;4882401;29;20398;-88
2021/07/05 05:52:31;;;;;;;5.05;0.98;;;18.20;93.20;;;;;;4902186;29;20060;-88
2021/07/05 05:54:56;;;;;;;1.65;0.90;;;18.20;93.40;;;;;;4902822;29;20427;-88
2021/07/05 05:57:31;;;;;;;4.68;1.00;;;18.20;93.20;;;;;;4901139;29;20028;-88
2021/07/05 05:59:59;;;;;;;4.55;1.10;;;18.30;93.20;;;;;;4889711;29;20500;-86
2021/07/05 06:02:27;;;;;;;5.45;1.30;;;18.20;93.10;;;;;;4886071;29;20045;-87
2021/07/05 06:04:53;;;;;;;4.30;1.00;;;18.20;93.10;;;;;;4884563;29;20040;-86
2021/07/05 06:07:19;;;;;;;4.10;0.90;;;18.20;93.10;;;;;;4884765;29;20037;-86
2021/07/05 06:09:44;;;;;;;2.42;1.00;;;18.20;93.10;;;;;;4894684;29;20131;-86
2021/07/05 06:12:11;;;;;;;1.77;0.90;;;18.20;93.10;;;;;;4888002;29;20051;-87
2021/07/05 06:14:37;;;;;;;3.30;1.35;;;18.30;93.10;;;;;;4885570;29;20025;-88
2021/07/05 06:17:03;;;;;;;2.40;0.95;;;18.30;93.10;;;;;;4886028;29;20028;-88
2021/07/05 06:19:29;;;;;;;1.70;0.98;;;18.30;93.10;;;;;;4892585;29;20033;-89
2021/07/05 06:21:55;;;;;;;2.65;0.88;;;18.30;93.10;;;;;;4889661;29;20041;-88
2021/07/05 06:24:21;;;;;;;6.55;1.20;;;18.30;93.20;;;;;;4885488;29;20032;-88
2021/07/05 06:26:47;;;;;;;2.35;0.80;;;18.30;93.30;;;;;;4885521;29;20060;-88
2021/07/05 06:29:13;;;;;;;4.65;1.17;;;18.30;93.30;;;;;;4890845;29;20072;-86
2021/07/05 06:31:39;;;;;;;2.95;1.13;;;18.30;93.30;;;;;;4901284;29;20040;-87
2021/07/05 06:34:05;;;;;;;1.65;0.88;;;18.40;93.20;;;;;;4893156;29;20032;-88
2021/07/05 06:36:31;;;;;;;3.08;0.98;;;18.40;93.40;;;;;;4900218;29;20052;-87
2021/07/05 06:38:57;;;;;;;5.57;1.00;;;18.40;93.30;;;;;;4896206;29;20028;-88
2021/07/05 06:41:26;;;;;;;1.10;0.90;;;18.50;93.20;;;;;;4886806;29;20096;-87
2021/07/05 06:43:57;;;;;;;3.60;0.98;;;18.50;93.30;;;;;;4901160;29;20031;-89
2021/07/05 06:46:24;;;;;;;2.15;1.10;;;18.50;93.10;;;;;;4898992;29;20035;-88
2021/07/05 06:48:50;;;;;;;2.28;1.08;;;18.50;93.20;;;;;;4892223;29;20048;-87
2021/07/05 06:51:16;;;;;;;3.08;0.90;;;18.60;93.10;;;;;;4886997;29;20260;-84
2021/07/05 06:53:42;;;;;;;4.90;1.42;;;18.60;93.00;;;;;;4884517;29;20205;-86
2021/07/05 06:56:08;;;;;;;3.08;1.10;;;18.60;92.90;;;;;;4901533;29;20036;-85
2021/07/05 06:58:34;;;;;;;1.67;0.95;;;18.70;92.90;;;;;;4884126;29;20032;-85
2021/07/05 07:01:00;;;;;;;2.53;1.02;;;18.70;92.80;;;;;;4884490;29;20037;-86
2021/07/05 07:03:27;;;;;;;2.70;1.02;;;18.70;92.60;;;;;;4899563;29;20039;-83
2021/07/05 07:05:53;;;;;;;2.63;0.90;;;18.70;92.60;;;;;;4884879;29;20034;-85
2021/07/05 07:08:19;;;;;;;5.13;1.10;;;18.70;92.60;;;;;;4884554;29;20103;-85
2021/07/05 07:10:45;;;;;;;5.50;1.30;;;18.70;92.50;;;;;;4884574;29;20108;-84
2021/07/05 07:13:10;;;;;;;3.97;1.13;;;18.70;92.50;;;;;;4884682;29;20044;-86
2021/07/05 07:15:39;;;;;;;2.22;0.70;;;18.80;92.40;;;;;;4915495;29;20115;-83
2021/07/05 07:18:32;;;;;;;1.95;0.80;;;18.90;92.40;;;;;;4915658;29;20029;-83
2021/07/05 07:21:02;;;;;;;1.30;0.82;;;18.80;92.30;;;;;;4901153;29;20069;-84
2021/07/05 07:23:28;;;;;;;3.22;0.98;;;18.90;92.30;;;;;;4900728;29;20045;-84
2021/07/05 07:25:54;;;;;;;3.33;0.88;;;19.00;92.30;;;;;;4900426;29;20033;-83
2021/07/05 07:28:19;;;;;;;1.55;0.82;;;19.00;92.20;;;;;;4884240;29;20025;-83
2021/07/05 07:30:45;;;;;;;0.90;0.75;;;19.00;92.10;;;;;;4899552;29;20060;-83
2021/07/05 07:33:11;;;;;;;1.02;0.77;;;19.00;92.00;;;;;;4904734;29;20043;-81
2021/07/05 07:35:37;;;;;;;1.33;0.70;;;19.00;92.00;;;;;;4900478;29;20028;-80
2021/07/05 07:38:04;;;;;;;4.43;1.02;;;19.00;91.90;;;;;;4884106;29;20033;-83
2021/07/05 07:40:32;;;;;;;1.63;0.80;;;19.00;92.00;;;;;;4883274;29;20029;-83
2021/07/05 07:42:58;;;;;;;0.90;0.68;;;19.00;92.10;;;;;;4900234;29;20032;-83
2021/07/05 07:45:24;;;;;;;1.33;0.68;;;19.10;92.10;;;;;;4883632;29;20032;-83
2021/07/05 07:47:50;;;;;;;1.35;0.85;;;19.10;92.10;;;;;;4898061;29;20031;-83
2021/07/05 07:50:18;;;;;;;2.33;0.80;;;19.10;92.10;;;;;;4892711;29;20028;-83
2021/07/05 07:52:44;;;;;;;2.08;0.65;;;19.20;91.90;;;;;;4889287;29;20045;-83
2021/07/05 07:55:12;;;;;;;2.45;0.90;;;19.30;91.70;;;;;;4899653;29;20039;-82
2021/07/05 07:57:38;;;;;;;0.60;0.52;;;19.30;91.50;;;;;;4883052;29;20159;-84
2021/07/05 08:00:10;;;;;;;2.95;0.80;;;19.30;91.20;;;;;;4900031;29;20028;-86
2021/07/05 08:02:36;;;;;;;1.40;0.50;;;19.30;91.30;;;;;;4901279;29;20032;-86
2021/07/05 08:05:02;;;;;;;2.08;0.80;;;19.30;91.20;;;;;;4885547;29;20056;-86
2021/07/05 08:07:28;;;;;;;1.02;0.65;;;19.30;91.40;;;;;;4887427;29;20058;-86
2021/07/05 08:09:55;;;;;;;1.00;0.73;;;19.30;91.30;;;;;;4885422;29;20031;-86
2021/07/05 08:12:21;;;;;;;2.95;0.70;;;19.30;90.90;;;;;;4901462;29;20459;-88
2021/07/05 08:14:46;;;;;;;0.95;0.60;;;19.30;91.00;;;;;;4883406;29;20306;-88
2021/07/05 08:17:12;;;;;;;1.52;0.68;;;19.40;91.00;;;;;;4883625;29;20044;-86
2021/07/05 08:19:38;;;;;;;3.75;0.85;;;19.40;90.90;;;;;;4900586;29;20064;-85
2021/07/05 08:22:04;;;;;;;4.70;0.80;;;19.40;90.70;;;;;;4883779;29;20135;-84
2021/07/05 08:24:30;;;;;;;3.20;0.93;;;19.50;90.50;;;;;;4883182;29;20075;-84
2021/07/05 08:26:56;;;;;;;1.25;0.60;;;19.50;90.40;;;;;;4914407;29;20036;-84
2021/07/05 08:29:22;;;;;;;2.15;0.75;;;19.60;90.40;;;;;;4882719;29;20031;-83
2021/07/05 08:31:48;;;;;;;0.95;0.45;;;19.60;90.30;;;;;;4882593;29;20043;-83
2021/07/05 08:34:14;;;;;;;2.00;0.75;;;19.70;90.10;;;;;;4883285;29;20032;-87
2021/07/05 08:36:40;;;;;;;2.80;0.90;;;19.70;89.60;;;;;;4899001;29;20033;-87
2021/07/05 08:39:08;;;;;;;1.15;0.60;;;19.70;89.20;;;;;;4882467;29;20063;-90
2021/07/05 08:41:34;;;;;;;0.93;0.65;;;19.60;89.30;;;;;;4882264;29;20083;-89
2021/07/05 08:44:01;;;;;;;2.28;0.82;;;19.60;89.10;;;;;;4882940;29;20029;-90
2021/07/05 08:46:27;;;;;;;0.85;0.60;;;19.60;89.20;;;;;;4899447;29;20035;-85
2021/07/05 08:48:53;;;;;;;3.03;0.50;;;19.60;88.90;;;;;;4882958;29;20028;-90
2021/07/05 08:51:20;;;;;;;1.40;0.63;;;19.60;88.90;;;;;;4882394;29;20048;-83
2021/07/05 08:53:48;;;;;;;1.25;0.60;;;19.60;88.60;;;;;;4881896;29;20476;-84
2021/07/05 08:56:14;;;;;;;1.48;0.70;;;19.60;88.80;;;;;;4899500;29;20036;-83
2021/07/05 08:58:42;;;;;;;1.65;0.50;;;19.70;88.20;;;;;;4881992;29;20042;-83
2021/07/05 09:01:10;;;;;;;3.33;0.80;;;19.80;88.10;;;;;;4899295;29;20029;-82
2021/07/05 09:03:37;;;;;;;0.90;0.60;;;19.70;88.20;;;;;;4882159;29;20037;-83
2021/07/05 09:06:13;;;;;;;1.98;0.73;;;19.80;88.30;;;;;;4882467;29;20028;-82
2021/07/05 09:08:41;;;;;;;3.80;0.88;;;19.80;88.40;;;;;;4898154;29;20039;-81
2021/07/05 09:11:10;;;;;;;2.15;0.70;;;19.80;88.70;;;;;;4882185;29;20029;-80
2021/07/05 09:13:53;;;;;;;0.85;0.68;;;19.80;88.50;;;;;;4881995;29;20084;-83
2021/07/05 09:16:48;;;;;;;1.75;0.50;;;19.80;88.20;;;;;;4899100;29;20041;-83
2021/07/05 09:19:29;;;;;;;0.50;0.47;;;20.00;88.00;;;;;;4901884;29;20127;-82
2021/07/05 09:22:00;;;;;;;0.63;0.30;;;20.00;85.20;;;;;;4882290;29;20505;-82
2021/07/05 09:24:55;;;;;;;0.98;0.40;;;20.10;84.90;;;;;;4882698;29;20108;-83
2021/07/05 09:27:35;;;;;;;1.10;0.20;;;20.00;83.30;;;;;;4880908;29;20104;-83
2021/07/05 09:30:09;;;;;;;0.60;0.38;;;19.90;83.90;;;;;;4899057;29;20028;-83
2021/07/05 09:32:35;;;;;;;0.88;0.35;;;19.90;84.40;;;;;;4880913;29;20037;-84
2021/07/05 09:35:13;;;;;;;1.15;0.40;;;19.90;84.50;;;;;;4881915;29;20088;-84
2021/07/05 09:37:51;;;;;;;1.10;0.50;;;20.00;84.30;;;;;;4881778;29;20032;-86
2021/07/05 09:40:17;;;;;;;0.90;0.22;;;20.10;85.00;;;;;;4898693;29;20513;-87
2021/07/05 09:42:48;;;;;;;1.40;0.30;;;20.20;84.20;;;;;;4885672;29;20064;-82
2021/07/05 09:45:23;;;;;;;0.85;0.40;;;20.20;83.60;;;;;;4897469;29;20084;-85
2021/07/05 09:48:16;;;;;;;0.60;0.30;;;20.30;83.70;;;;;;4884760;29;20427;-86
2021/07/05 09:50:42;;;;;;;2.47;0.73;;;20.30;83.30;;;;;;4881317;29;20395;-85
2021/07/05 09:58:31;;;;;;;2.72;0.40;;;20.60;83.50;;;;;;5176694;23;20063;-75
2021/07/05 10:00:57;;;;;;;3.40;0.75;;;20.70;83.50;;;;;;4945324;28;20080;-76
2021/07/05 10:03:36;;;;;;;1.30;0.50;;;20.70;83.40;;;;;;4941566;29;20403;-76
2021/07/05 10:06:19;;;;;;;0.65;0.40;;;20.80;83.80;;;;;;4953985;29;20035;-76
2021/07/05 10:08:47;;;;;;;2.92;0.57;;;20.80;83.90;;;;;;4936803;29;20032;-76
2021/07/05 10:11:13;;;;;;;1.15;0.30;;;20.90;82.50;;;;;;4937462;29;20034;-76
2021/07/05 10:13:39;;;;;;;0.82;0.30;;;21.00;82.10;;;;;;4937087;29;20027;-75
2021/07/05 10:16:09;;;;;;;1.77;0.50;;;21.10;82.70;;;;;;4936578;29;20102;-76
2021/07/05 10:18:35;;;;;;;2.67;0.70;;;21.20;82.00;;;;;;4937155;29;20051;-76
2021/07/05 10:21:03;;;;;;;3.50;0.60;;;21.20;82.50;;;;;;4936843;29;20306;-77
2021/07/05 10:23:29;;;;;;;0.88;0.47;;;21.20;82.20;;;;;;4937421;29;20031;-75
2021/07/05 10:25:55;;;;;;;1.17;0.30;;;21.10;82.00;;;;;;4936777;29;20027;-76
2021/07/05 10:28:21;;;;;;;3.33;0.40;;;21.00;82.50;;;;;;4937088;29;20381;-78
2021/07/05 10:30:52;;;;;;;1.10;0.40;;;21.00;82.40;;;;;;4919872;29;20038;-78
2021/07/05 10:33:18;;;;;;;2.20;0.40;;;20.90;82.70;;;;;;4917995;29;20040;-78
2021/07/05 10:35:54;;;;;;;0.88;0.50;;;20.90;83.40;;;;;;4917967;29;20436;-78
2021/07/05 10:38:50;;;;;;;0.32;0.32;;;20.70;83.50;;;;;;4919882;29;20126;-77
2021/07/05 10:41:17;;;;;;;1.45;0.40;;;20.70;84.00;;;;;;4922565;29;20039;-76
2021/07/05 10:44:06;;;;;;;1.17;0.32;;;20.70;84.10;;;;;;4921451;29;20038;-77
2021/07/05 10:46:54;;;;;;;1.25;0.30;;;20.80;84.10;;;;;;4921495;29;20065;-77
2021/07/05 10:49:29;;;;;;;1.25;0.40;;;20.90;83.50;;;;;;4922008;29;20383;-78
2021/07/05 10:52:12;;;;;;;0.35;0.30;;;21.00;83.00;;;;;;4921090;29;20445;-77
2021/07/05 10:54:40;;;;;;;0.20;0.20;;;21.00;82.60;;;;;;4921625;29;20040;-78
2021/07/05 10:57:06;;;;;;;0.30;0.30;;;21.00;82.30;;;;;;4920922;29;20094;-78
2021/07/05 10:59:33;;;;;;;0.70;0.30;;;21.00;82.70;;;;;;4928174;29;20047;-77
2021/07/05 11:01:59;;;;;;;1.95;0.40;;;21.00;82.70;;;;;;4939852;29;20535;-75
2021/07/05 11:04:29;;;;;;;0.60;0.30;;;21.00;82.60;;;;;;4940120;29;20031;-76
2021/07/05 11:07:10;;;;;;;1.17;0.40;;;20.90;82.10;;;;;;4939584;29;20028;-76
2021/07/05 11:09:53;;;;;;;0.77;0.23;;;20.80;81.80;;;;;;4940069;29;20027;-78
2021/07/05 11:12:30;;;;;;;1.15;0.20;;;21.00;81.90;;;;;;4940116;29;20039;-79
2021/07/05 11:14:56;;;;;;;0.43;0.30;;;21.10;81.10;;;;;;4939790;29;20122;-77
2021/07/05 11:17:25;;;;;;;0.47;0.30;;;21.00;81.30;;;;;;4939987;29;20027;-77
2021/07/05 11:19:55;;;;;;;1.30;0.30;;;21.10;81.60;;;;;;4956926;29;20030;-77
2021/07/05 11:22:22;;;;;;;1.63;0.45;;;21.10;81.60;;;;;;4939908;29;20031;-77
2021/07/05 11:24:51;;;;;;;0.30;0.20;;;21.10;81.60;;;;;;4939309;29;20126;-78
2021/07/05 11:27:45;;;;;;;0.75;0.47;;;21.20;81.10;;;;;;4939533;29;20121;-78
2021/07/05 11:30:31;;;;;;;0.25;0.10;;;21.20;81.00;;;;;;4957131;29;20035;-79
2021/07/05 11:33:01;;;;;;;0.30;0.30;;;21.30;81.10;;;;;;4952418;28;20042;-81
2021/07/05 11:35:58;;;;;;;1.08;0.40;;;21.40;80.80;;;;;;4953844;28;20379;-78
2021/07/05 11:38:41;;;;;;;0.63;0.20;;;21.40;81.20;;;;;;4928437;28;20031;-78
2021/07/05 11:41:24;;;;;;;0.43;0.30;;;21.30;80.30;;;;;;4975963;28;20023;-78
2021/07/05 11:43:57;;;;;;;1.50;0.30;;;21.20;81.50;;;;;;4947564;28;20038;-77
2021/07/05 11:46:28;;;;;;;0.40;0.20;;;21.10;82.60;;;;;;4939039;29;20031;-80
2021/07/05 11:48:55;;;;;;;2.22;0.25;;;21.10;83.10;;;;;;4938955;29;20038;-77
2021/07/05 11:51:29;;;;;;;0.50;0.20;;;21.10;83.50;;;;;;4956687;29;20038;-78
2021/07/05 11:54:03;;;;;;;0.17;0.17;;;21.10;83.20;;;;;;4938673;29;20035;-77
2021/07/05 11:56:49;;;;;;;0.30;0.20;;;21.10;83.70;;;;;;4956103;29;20034;-78
2021/07/05 11:59:54;;;;;;;0.85;0.40;;;21.30;82.50;;;;;;4939210;29;20055;-77
2021/07/05 12:02:20;;;;;;;0.50;0.28;;;21.60;81.80;;;;;;4908676;29;20073;-78
2021/07/05 12:04:47;;;;;;;1.02;0.30;;;21.70;80.90;;;;;;4956203;29;20060;-77
2021/07/05 12:07:21;;;;;;;2.38;0.50;;;21.50;80.50;;;;;;4939315;29;20031;-77
2021/07/05 12:09:50;;;;;;;0.57;0.30;;;21.60;80.80;;;;;;4939242;29;20054;-78
2021/07/05 12:12:18;;;;;;;1.75;0.50;;;21.70;81.50;;;;;;4938504;29;20031;-77
2021/07/05 12:14:46;;;;;;;2.08;0.30;;;21.90;81.90;;;;;;4939042;29;20027;-77
2021/07/05 12:17:13;;;;;;;0.77;0.28;;;22.00;80.20;;;;;;4938689;29;20027;-77
2021/07/05 12:19:42;;;;;;;0.90;0.30;;;22.30;80.40;;;;;;4939215;29;20126;-78
2021/07/05 12:22:10;;;;;;;0.20;0.20;;;22.30;79.40;;;;;;4938468;29;20384;-77
2021/07/05 12:24:42;;;;;;;0.45;0.30;;;22.30;80.00;;;;;;4938993;29;20077;-78
2021/07/05 12:27:11;;;;;;;0.85;0.35;;;22.30;81.10;;;;;;4938596;29;20039;-78
2021/07/05 12:29:47;;;;;;;0.68;0.30;;;22.30;82.80;;;;;;4939018;29;20032;-78
2021/07/05 12:32:19;;;;;;;0.20;0.20;;;22.40;82.60;;;;;;4938538;29;20464;-78
2021/07/05 12:34:58;;;;;;;1.38;0.40;;;22.50;81.80;;;;;;4938160;29;20485;-77
2021/07/05 12:37:29;;;;;;;0.40;0.30;;;22.60;80.00;;;;;;4938940;29;20365;-78
2021/07/05 12:40:08;;;;;;;0.52;0.25;;;22.80;79.70;;;;;;4938393;29;20031;-80
2021/07/05 12:42:39;;;;;;;0.55;0.20;;;23.10;80.30;;;;;;4939108;29;20044;-79
2021/07/05 12:45:13;;;;;;;0.57;0.30;;;23.20;77.00;;;;;;4938534;29;20024;-79
2021/07/05 12:48:15;;;;;;;1.10;0.40;;;23.20;75.90;;;;;;4956211;29;20035;-79
2021/07/05 12:50:55;;;;;;;0.30;0.20;;;23.20;77.00;;;;;;4926510;29;20041;-79
2021/07/05 12:53:28;;;;;;;0.55;0.40;;;23.50;75.70;;;;;;4955820;29;20035;-79
2021/07/05 12:56:25;;;;;;;1.17;0.30;;;23.40;75.90;;;;;;4938203;29;20035;-78
2021/07/05 12:58:52;;;;;;;0.40;0.20;;;23.40;75.90;;;;;;4952432;29;20400;-82
2021/07/05 13:01:31;;;;;;;0.63;0.20;;;23.50;74.70;;;;;;4954584;28;20041;-77